createdAt,value
2017-07-26T00:02:00.046Z,994.65
2017-07-26T00:04:15.542Z,994.59
2017-07-26T00:06:39.328Z,994.65
2017-07-26T00:08:54.633Z,994.55
2017-07-26T00:11:18.451Z,994.63
2017-07-26T00:13:33.791Z,994.62
2017-07-26T00:15:57.571Z,994.63
2017-07-26T00:18:12.919Z,994.64
2017-07-26T00:20:36.759Z,994.64
2017-07-26T00:22:52.122Z,994.64
2017-07-26T00:25:07.453Z,994.73
2017-07-26T00:27:31.284Z,994.68
2017-07-26T00:29:55.091Z,994.73
2017-07-26T00:32:18.828Z,994.85
2017-07-26T00:34:42.633Z,994.81
2017-07-26T00:37:06.491Z,994.92
2017-07-26T00:39:30.376Z,994.9
2017-07-26T00:41:54.125Z,994.91
2017-07-26T00:44:03.991Z,994.89
2017-07-26T00:46:19.383Z,994.91
2017-07-26T00:48:43.202Z,994.93
2017-07-26T00:51:07.026Z,994.88
2017-07-26T00:53:22.426Z,994.9
2017-07-26T00:55:46.264Z,994.84
2017-07-26T00:58:10.148Z,994.91
2017-07-26T01:00:34.035Z,994.86
2017-07-26T01:02:57.862Z,994.87
2017-07-26T01:04:59.195Z,994.92
2017-07-26T01:06:52.057Z,994.93
2017-07-26T01:09:07.469Z,994.86
2017-07-26T01:11:31.270Z,994.9
2017-07-26T01:13:46.662Z,994.94
2017-07-26T01:16:10.460Z,995
2017-07-26T01:18:34.238Z,995
2017-07-26T01:20:49.612Z,995.05
2017-07-26T01:23:13.335Z,995.05
2017-07-26T01:25:28.697Z,995.03
2017-07-26T01:27:52.583Z,995.1
2017-07-26T01:30:16.298Z,995.14
2017-07-26T01:32:31.725Z,995.11
2017-07-26T01:34:24.639Z,995.14
2017-07-26T01:36:34.449Z,995.22
2017-07-26T01:38:58.257Z,995.21
2017-07-26T01:41:22.047Z,995.24
2017-07-26T01:43:37.416Z,995.23
2017-07-26T01:46:01.212Z,995.31
2017-07-26T01:48:24.989Z,995.34
2017-07-26T01:50:40.357Z,995.35
2017-07-26T01:53:04.165Z,995.3
2017-07-26T01:55:28.062Z,995.33
2017-07-26T01:57:51.921Z,995.34
2017-07-26T02:00:15.699Z,995.4
2017-07-26T02:02:22.657Z,995.4
2017-07-26T02:04:46.549Z,995.44
2017-07-26T02:07:02.002Z,995.45
2017-07-26T02:09:25.799Z,995.48
2017-07-26T02:11:32.837Z,995.49
2017-07-26T02:13:56.772Z,995.52
2017-07-26T02:15:58.073Z,995.52
2017-07-26T02:18:21.860Z,995.53
2017-07-26T02:20:37.202Z,995.54
2017-07-26T02:22:52.563Z,995.62
2017-07-26T02:26:52.663Z,995.62
2017-07-26T02:29:16.445Z,995.68
2017-07-26T02:31:31.779Z,995.69
2017-07-26T02:33:55.547Z,995.67
2017-07-26T02:36:02.474Z,995.67
2017-07-26T02:38:26.250Z,995.74
2017-07-26T02:40:49.998Z,995.74
2017-07-26T02:43:13.829Z,995.77
2017-07-26T02:45:37.585Z,995.82
2017-07-26T02:48:01.459Z,995.83
2017-07-26T02:50:16.820Z,995.85
2017-07-26T02:52:40.578Z,995.87
2017-07-26T02:55:04.391Z,995.91
2017-07-26T02:57:28.296Z,995.95
2017-07-26T02:59:52.044Z,995.92
2017-07-26T03:02:15.734Z,995.9
2017-07-26T03:04:31.159Z,995.92
2017-07-26T03:06:54.946Z,995.92
2017-07-26T03:09:10.309Z,995.96
2017-07-26T03:11:34.117Z,995.98
2017-07-26T03:13:43.938Z,995.96
2017-07-26T03:15:59.322Z,995.95
2017-07-26T03:18:09.129Z,995.94
2017-07-26T03:20:24.492Z,995.9
2017-07-26T03:22:48.301Z,995.9
2017-07-26T03:25:12.011Z,995.96
2017-07-26T03:27:35.783Z,995.97
2017-07-26T03:29:51.143Z,996.06
2017-07-26T03:32:14.914Z,996.04
2017-07-26T03:34:38.680Z,996.08
2017-07-26T03:37:02.485Z,996.13
2017-07-26T03:39:27.935Z,996.14
2017-07-26T03:41:51.765Z,996.12
2017-07-26T03:44:15.541Z,996.11
2017-07-26T03:46:30.889Z,996.14
2017-07-26T03:48:46.276Z,996.16
2017-07-26T03:51:10.065Z,996.1
2017-07-26T03:53:35.286Z,996.17
2017-07-26T03:55:50.653Z,996.17
2017-07-26T03:58:14.540Z,996.17
2017-07-26T04:00:38.420Z,996.16
2017-07-26T04:02:40.221Z,996.18
2017-07-26T04:05:04.022Z,996.18
2017-07-26T04:07:19.373Z,996.11
2017-07-26T04:09:20.690Z,996.12
2017-07-26T04:11:44.484Z,996.21
2017-07-26T04:14:08.265Z,996.27
2017-07-26T04:16:15.130Z,996.32
2017-07-26T04:18:30.445Z,996.36
2017-07-26T04:20:45.789Z,996.3
2017-07-26T04:23:09.640Z,996.25
2017-07-26T04:25:10.930Z,996.26
2017-07-26T04:27:34.699Z,996.32
2017-07-26T04:29:50.026Z,996.31
2017-07-26T04:32:13.765Z,996.36
2017-07-26T04:34:37.494Z,996.36
2017-07-26T04:37:01.230Z,996.31
2017-07-26T04:39:24.945Z,996.36
2017-07-26T04:41:48.663Z,996.31
2017-07-26T04:43:58.489Z,996.42
2017-07-26T04:46:13.817Z,996.42
2017-07-26T04:48:37.541Z,996.48
2017-07-26T04:51:01.266Z,996.52
2017-07-26T04:53:25.020Z,996.49
2017-07-26T04:55:48.788Z,996.5
2017-07-26T04:58:12.590Z,996.55
2017-07-26T05:00:36.352Z,996.58
2017-07-26T05:03:00.139Z,996.58
2017-07-26T05:05:23.849Z,996.58
2017-07-26T05:07:47.694Z,996.55
2017-07-26T05:10:03.164Z,996.57
2017-07-26T05:12:12.997Z,996.61
2017-07-26T05:14:28.317Z,996.6
2017-07-26T05:16:43.641Z,996.61
2017-07-26T05:19:07.400Z,996.68
2017-07-26T05:21:22.694Z,996.68
2017-07-26T05:23:46.467Z,996.7
2017-07-26T05:26:01.843Z,996.71
2017-07-26T05:28:25.649Z,996.7
2017-07-26T05:30:41.107Z,996.76
2017-07-26T05:33:04.883Z,996.75
2017-07-26T05:35:28.650Z,996.77
2017-07-26T05:37:53.476Z,996.74
2017-07-26T05:40:17.258Z,996.78
2017-07-26T05:42:41.043Z,996.77
2017-07-26T05:45:05.968Z,996.77
2017-07-26T05:47:07.781Z,996.75
2017-07-26T05:49:23.143Z,996.83
2017-07-26T05:51:46.955Z,996.88
2017-07-26T05:54:10.719Z,996.88
2017-07-26T05:56:34.498Z,996.88
2017-07-26T05:58:58.330Z,996.9
2017-07-26T06:01:22.139Z,996.91
2017-07-26T06:03:45.928Z,996.88
2017-07-26T06:05:52.930Z,996.89
2017-07-26T06:08:16.757Z,996.94
2017-07-26T06:10:40.584Z,996.94
2017-07-26T06:12:55.989Z,996.93
2017-07-26T06:15:20.670Z,996.91
2017-07-26T06:17:44.459Z,996.91
2017-07-26T06:20:08.301Z,996.95
2017-07-26T06:22:32.116Z,996.99
2017-07-26T06:24:55.928Z,997
2017-07-26T06:27:19.822Z,997.01
2017-07-26T06:29:35.250Z,997.06
2017-07-26T06:31:50.663Z,997.05
2017-07-26T06:34:14.504Z,997.14
2017-07-26T06:36:38.375Z,997.18
2017-07-26T06:39:02.258Z,997.19
2017-07-26T06:41:12.577Z,997.13
2017-07-26T06:43:36.409Z,997.15
2017-07-26T06:46:00.218Z,997.07
2017-07-26T06:48:24.028Z,997.09
2017-07-26T06:50:39.435Z,997.07
2017-07-26T06:53:03.260Z,997.08
2017-07-26T06:57:03.424Z,997.2
2017-07-26T06:59:27.331Z,997.21
2017-07-26T07:01:51.205Z,997.23
2017-07-26T07:04:06.683Z,997.23
2017-07-26T07:06:30.500Z,997.28
2017-07-26T07:08:55.412Z,997.3
2017-07-26T07:11:19.324Z,997.35
2017-07-26T07:13:43.227Z,997.38
2017-07-26T07:16:00.706Z,997.41
2017-07-26T07:18:25.598Z,997.4
2017-07-26T07:20:50.497Z,997.4
2017-07-26T07:23:05.993Z,997.41
2017-07-26T07:25:21.470Z,997.17
2017-07-26T07:27:45.381Z,997.42
2017-07-26T07:30:00.880Z,997.44
2017-07-26T07:32:24.712Z,997.43
2017-07-26T07:34:48.610Z,997.44
2017-07-26T07:37:12.524Z,997.48
2017-07-26T07:41:29.728Z,997.48
2017-07-26T07:43:36.779Z,997.56
2017-07-26T07:46:00.647Z,997.54
2017-07-26T07:48:16.010Z,997.49
2017-07-26T07:50:40.075Z,997.49
2017-07-26T07:53:03.738Z,997.49
2017-07-26T07:55:19.235Z,997.51
2017-07-26T07:57:43.100Z,997.49
2017-07-26T08:00:06.968Z,997.54
2017-07-26T08:02:30.883Z,997.52
2017-07-26T08:04:54.744Z,997.53
2017-07-26T08:07:18.584Z,997.55
2017-07-26T08:09:43.383Z,997.6
2017-07-26T08:12:07.281Z,997.62
2017-07-26T08:14:31.185Z,997.58
2017-07-26T08:16:55.070Z,997.69
2017-07-26T08:19:18.931Z,997.7
2017-07-26T08:21:42.822Z,997.71
2017-07-26T08:24:06.691Z,997.79
2017-07-26T08:26:30.560Z,997.83
2017-07-26T08:28:54.432Z,997.86
2017-07-26T08:31:18.343Z,997.89
2017-07-26T08:33:42.123Z,997.89
2017-07-26T08:36:05.957Z,997.92
2017-07-26T08:38:29.835Z,997.97
2017-07-26T08:40:46.273Z,997.95
2017-07-26T08:43:10.203Z,997.96
2017-07-26T08:45:25.720Z,998
2017-07-26T08:47:49.640Z,998.01
2017-07-26T08:50:06.136Z,997.96
2017-07-26T08:52:31.061Z,998.01
2017-07-26T08:54:55.011Z,997.98
2017-07-26T08:57:18.949Z,997.99
2017-07-26T08:59:34.438Z,998
2017-07-26T09:01:58.402Z,997.98
2017-07-26T09:04:13.911Z,998.02
2017-07-26T09:06:37.857Z,998.05
2017-07-26T09:09:02.807Z,998.05
2017-07-26T09:11:26.781Z,998.05
2017-07-26T09:13:50.771Z,998.06
2017-07-26T09:16:14.754Z,998.11
2017-07-26T09:18:40.770Z,998.15
2017-07-26T09:21:05.856Z,998.13
2017-07-26T09:23:16.250Z,998.08
2017-07-26T09:25:40.328Z,998.13
2017-07-26T09:28:04.291Z,998.14
2017-07-26T09:30:28.385Z,998.2
2017-07-26T09:32:52.440Z,998.12
2017-07-26T09:35:16.553Z,998.06
2017-07-26T09:37:40.475Z,998.07
2017-07-26T09:40:04.627Z,998.03
2017-07-26T09:42:28.638Z,998.12
2017-07-26T09:44:53.844Z,998.12
2017-07-26T09:47:17.993Z,998.15
2017-07-26T09:49:42.284Z,998.11
2017-07-26T09:52:06.441Z,998.13
2017-07-26T09:54:30.661Z,998.16
2017-07-26T09:56:54.875Z,998.18
2017-07-26T09:59:19.132Z,998.18
2017-07-26T10:01:35.003Z,998.17
2017-07-26T10:03:59.312Z,998.1
2017-07-26T10:06:23.691Z,998.05
2017-07-26T10:08:48.095Z,998.06
2017-07-26T10:11:12.443Z,998.07
2017-07-26T10:13:36.810Z,998.1
2017-07-26T10:16:01.157Z,998.1
2017-07-26T10:18:26.519Z,998.07
2017-07-26T10:20:50.831Z,998.15
2017-07-26T10:23:14.929Z,998.22
2017-07-26T10:25:30.748Z,998.22
2017-07-26T10:27:54.920Z,998.19
2017-07-26T10:30:19.108Z,998.21
2017-07-26T10:32:43.288Z,998.27
2017-07-26T10:35:08.405Z,998.27
2017-07-26T10:37:33.600Z,998.21
2017-07-26T10:39:57.816Z,998.18
2017-07-26T10:42:21.984Z,998.23
2017-07-26T10:44:46.070Z,998.17
2017-07-26T10:47:10.315Z,998.17
2017-07-26T10:49:34.478Z,998.19
2017-07-26T10:51:58.606Z,998.18
2017-07-26T10:54:22.761Z,998.15
2017-07-26T10:56:46.977Z,998.14
2017-07-26T10:59:10.957Z,998.07
2017-07-26T11:01:35.319Z,998.05
2017-07-26T11:03:45.679Z,998.22
2017-07-26T11:06:09.930Z,998.22
2017-07-26T11:08:34.219Z,998.26
2017-07-26T11:10:58.415Z,998.27
2017-07-26T11:13:08.909Z,998.17
2017-07-26T11:15:33.254Z,998.25
2017-07-26T11:18:00.496Z,998.23
2017-07-26T11:20:32.503Z,998.25
2017-07-26T11:22:56.346Z,998.14
2017-07-26T11:25:20.724Z,998.12
2017-07-26T11:27:45.082Z,998.18
2017-07-26T11:30:09.420Z,998.13
2017-07-26T11:32:25.271Z,998.23
2017-07-26T11:34:41.153Z,998.21
2017-07-26T11:36:56.923Z,998.2
2017-07-26T11:39:12.795Z,998.18
2017-07-26T11:41:37.032Z,998.16
2017-07-26T11:44:01.252Z,998.21
2017-07-26T11:46:25.524Z,998.23
2017-07-26T11:48:35.985Z,998.3
2017-07-26T11:51:00.143Z,998.35
2017-07-26T11:53:24.233Z,998.43
2017-07-26T11:55:48.365Z,998.45
2017-07-26T11:58:04.070Z,998.47
2017-07-26T12:00:28.171Z,998.56
2017-07-26T12:02:43.807Z,998.49
2017-07-26T12:04:59.451Z,998.53
2017-07-26T12:07:06.647Z,998.56
2017-07-26T12:09:30.730Z,998.59
2017-07-26T12:11:54.676Z,998.57
2017-07-26T12:14:18.829Z,998.57
2017-07-26T12:16:42.848Z,998.57
2017-07-26T12:19:06.916Z,998.54
2017-07-26T12:21:31.110Z,998.47
2017-07-26T12:23:55.137Z,998.47
2017-07-26T12:26:19.286Z,998.44
2017-07-26T12:28:43.555Z,998.48
2017-07-26T12:31:07.675Z,998.43
2017-07-26T12:33:31.798Z,998.38
2017-07-26T12:35:55.943Z,998.47
2017-07-26T12:38:20.043Z,998.46
2017-07-26T12:40:44.131Z,998.45
2017-07-26T12:43:08.206Z,998.46
2017-07-26T12:45:32.283Z,998.51
2017-07-26T12:47:56.350Z,998.47
2017-07-26T12:50:20.455Z,998.49
2017-07-26T12:52:44.553Z,998.54
2017-07-26T12:55:08.634Z,998.58
2017-07-26T12:57:32.675Z,998.56
2017-07-26T12:59:57.755Z,998.63
2017-07-26T13:02:22.872Z,998.67
2017-07-26T13:04:46.952Z,998.64
2017-07-26T13:07:11.044Z,998.66
2017-07-26T13:09:35.184Z,998.64
2017-07-26T13:11:59.237Z,998.66
2017-07-26T13:14:23.351Z,998.63
2017-07-26T13:16:49.489Z,998.67
2017-07-26T13:19:13.555Z,998.65
2017-07-26T13:21:37.690Z,998.63
2017-07-26T13:24:01.848Z,998.65
2017-07-26T13:26:27.054Z,998.56
2017-07-26T13:28:51.240Z,998.56
2017-07-26T13:31:15.445Z,998.51
2017-07-26T13:33:48.281Z,998.54
2017-07-26T13:36:12.531Z,998.53
2017-07-26T13:38:36.747Z,998.51
2017-07-26T13:41:00.958Z,998.41
2017-07-26T13:43:25.308Z,998.43
2017-07-26T13:45:49.452Z,998.42
2017-07-26T13:48:13.705Z,998.42
2017-07-26T13:50:38.888Z,998.42
2017-07-26T13:53:03.072Z,998.42
2017-07-26T13:55:27.313Z,998.43
2017-07-26T13:57:51.600Z,998.41
2017-07-26T14:00:17.860Z,998.36
2017-07-26T14:02:42.133Z,998.36
2017-07-26T14:05:06.302Z,998.35
2017-07-26T14:07:30.559Z,998.32
2017-07-26T14:09:54.793Z,998.29
2017-07-26T14:12:20.078Z,998.27
2017-07-26T14:14:45.268Z,998.27
2017-07-26T14:17:09.537Z,998.28
2017-07-26T14:19:33.751Z,998.3
2017-07-26T14:21:57.950Z,998.34
2017-07-26T14:24:24.207Z,998.32
2017-07-26T14:26:48.461Z,998.24
2017-07-26T14:29:12.696Z,998.21
2017-07-26T14:31:36.972Z,998.18
2017-07-26T14:34:01.263Z,998.17
2017-07-26T14:35:54.728Z,998.14
2017-07-26T14:38:19.012Z,998.14
2017-07-26T14:40:43.308Z,998.06
2017-07-26T14:43:07.650Z,998.07
2017-07-26T14:45:31.988Z,998.04
2017-07-26T14:47:56.382Z,998.06
2017-07-26T14:50:20.685Z,998.05
2017-07-26T14:52:44.969Z,998.04
2017-07-26T14:55:09.385Z,998.07
2017-07-26T14:57:33.737Z,998.05
2017-07-26T14:59:58.063Z,998
2017-07-26T15:02:22.392Z,998.02
2017-07-26T15:04:46.676Z,998.05
2017-07-26T15:07:10.981Z,998.06
2017-07-26T15:09:35.283Z,998.04
2017-07-26T15:11:36.738Z,998.04
2017-07-26T15:14:01.062Z,997.99
2017-07-26T15:16:25.367Z,998.03
2017-07-26T15:18:49.711Z,998.04
2017-07-26T15:21:14.070Z,998.04
2017-07-26T15:23:38.372Z,998
2017-07-26T15:26:02.789Z,997.95
2017-07-26T15:28:18.644Z,997.98
2017-07-26T15:30:42.972Z,997.99
2017-07-26T15:33:07.300Z,998.01
2017-07-26T15:35:32.657Z,998.02
2017-07-26T15:37:57.975Z,997.98
2017-07-26T15:40:22.257Z,998.04
2017-07-26T15:42:46.548Z,997.99
2017-07-26T15:45:10.933Z,998.05
2017-07-26T15:47:18.326Z,998.07
2017-07-26T15:49:34.218Z,998.06
2017-07-26T15:51:41.611Z,998.08
2017-07-26T15:54:05.936Z,998.08
2017-07-26T15:56:21.835Z,998.09
2017-07-26T15:58:46.141Z,998.11
2017-07-26T16:01:10.427Z,998.06
2017-07-26T16:03:35.871Z,998.07
2017-07-26T16:06:00.236Z,998.05
2017-07-26T16:08:24.615Z,998.02
2017-07-26T16:10:18.102Z,998.06
2017-07-26T16:12:34.072Z,998.08
2017-07-26T16:14:58.451Z,998.09
2017-07-26T16:17:22.809Z,998.14
2017-07-26T16:19:47.174Z,998.14
2017-07-26T16:22:11.534Z,998.14
2017-07-26T16:24:35.858Z,998.13
2017-07-26T16:27:00.229Z,998.09
2017-07-26T16:29:07.711Z,998.08
2017-07-26T16:31:23.597Z,998.12
2017-07-26T16:33:47.986Z,998.1
2017-07-26T16:36:12.394Z,998.11
2017-07-26T16:38:37.808Z,998.13
2017-07-26T16:41:02.216Z,998.12
2017-07-26T16:43:26.576Z,998.11
2017-07-26T16:45:57.962Z,998.06
2017-07-26T16:48:22.382Z,998.09
2017-07-26T16:50:44.619Z,998.13
2017-07-26T16:53:09.172Z,998.14
2017-07-26T16:57:16.068Z,998.14
2017-07-26T16:59:41.366Z,998.14
2017-07-26T17:02:05.865Z,998.1
2017-07-26T17:04:30.263Z,998.14
2017-07-26T17:06:46.331Z,998.16
2017-07-26T17:09:10.748Z,998.19
2017-07-26T17:11:35.133Z,998.18
2017-07-26T17:13:51.136Z,998.22
2017-07-26T17:16:07.071Z,998.22
2017-07-26T17:18:23.020Z,998.23
2017-07-26T17:20:38.947Z,998.2
2017-07-26T17:23:03.449Z,998.23
2017-07-26T17:25:27.896Z,998.24
2017-07-26T17:27:52.440Z,998.25
2017-07-26T17:29:45.884Z,998.24
2017-07-26T17:32:10.345Z,998.24
2017-07-26T17:34:34.723Z,998.2
2017-07-26T17:36:59.144Z,998.25
2017-07-26T17:39:23.669Z,998.29
2017-07-26T17:41:48.091Z,998.25
2017-07-26T17:44:12.497Z,998.26
2017-07-26T17:46:36.933Z,998.24
2017-07-26T17:49:01.511Z,998.21
2017-07-26T17:51:25.830Z,998.29
2017-07-26T17:53:50.202Z,998.26
2017-07-26T17:56:14.537Z,998.24
2017-07-26T17:58:38.996Z,998.23
2017-07-26T18:01:03.385Z,998.25
2017-07-26T18:03:27.628Z,998.28
2017-07-26T18:05:51.952Z,998.33
2017-07-26T18:08:16.308Z,998.32
2017-07-26T18:10:41.771Z,998.36
2017-07-26T18:13:05.920Z,998.34
2017-07-26T18:15:30.208Z,998.34
2017-07-26T18:17:54.462Z,998.39
2017-07-26T18:20:18.749Z,998.43
2017-07-26T18:22:34.539Z,998.42
2017-07-26T18:24:58.792Z,998.47
2017-07-26T18:27:23.042Z,998.51
2017-07-26T18:29:47.249Z,998.52
2017-07-26T18:32:03.066Z,998.56
2017-07-26T18:34:27.277Z,998.5
2017-07-26T18:36:51.516Z,998.56
2017-07-26T18:39:15.668Z,998.56
2017-07-26T18:41:26.140Z,998.56
2017-07-26T18:43:50.344Z,998.58
2017-07-26T18:46:06.076Z,998.43
2017-07-26T18:48:30.190Z,998.57
2017-07-26T18:50:54.386Z,998.65
2017-07-26T18:53:18.566Z,998.62
2017-07-26T18:55:42.764Z,998.61
2017-07-26T18:58:06.900Z,998.61
2017-07-26T19:00:31.017Z,998.61
2017-07-26T19:02:55.144Z,998.67
2017-07-26T19:05:19.248Z,998.63
2017-07-26T19:07:29.734Z,998.63
2017-07-26T19:09:53.916Z,998.6
2017-07-26T19:12:18.087Z,998.68
2017-07-26T19:14:42.216Z,998.68
2017-07-26T19:17:06.405Z,998.65
2017-07-26T19:19:31.506Z,998.68
2017-07-26T19:21:54.749Z,998.69
2017-07-26T19:24:18.828Z,998.69
2017-07-26T19:26:42.945Z,998.63
2017-07-26T19:29:07.064Z,998.63
2017-07-26T19:31:31.139Z,998.68
2017-07-26T19:33:55.278Z,998.65
2017-07-26T19:36:19.370Z,998.66
2017-07-26T19:38:43.504Z,998.64
2017-07-26T19:41:07.607Z,998.66
2017-07-26T19:43:31.770Z,998.7
2017-07-26T19:45:55.937Z,998.69
2017-07-26T19:48:20.111Z,998.67
2017-07-26T19:50:44.279Z,998.72
2017-07-26T19:53:08.478Z,998.69
2017-07-26T19:59:35.904Z,998.74
2017-07-26T20:02:07.801Z,998.75
2017-07-26T20:04:31.783Z,998.73
2017-07-26T20:06:56.597Z,998.75
2017-07-26T20:09:21.371Z,998.73
2017-07-26T20:11:46.747Z,998.75
2017-07-26T20:14:12.048Z,998.7
2017-07-26T20:16:42.871Z,998.71
2017-07-26T20:19:07.015Z,998.71
2017-07-26T20:21:31.110Z,998.68
2017-07-26T20:23:55.123Z,998.71
2017-07-26T20:26:19.233Z,998.72
2017-07-26T20:28:44.022Z,998.69
2017-07-26T20:32:54.612Z,998.65
2017-07-26T20:38:44.652Z,998.6
2017-07-26T20:41:10.855Z,998.6
2017-07-26T20:43:35.227Z,998.59
2017-07-26T20:45:59.009Z,998.61
2017-07-26T20:48:23.076Z,998.64
2017-07-26T20:51:04.078Z,998.65
2017-07-26T20:53:28.614Z,998.68
2017-07-26T20:55:52.648Z,998.6
2017-07-26T20:58:17.011Z,998.61
2017-07-26T21:00:41.104Z,998.58
2017-07-26T21:03:05.028Z,998.57
2017-07-26T21:05:29.121Z,998.6
2017-07-26T21:07:55.060Z,998.59
2017-07-26T21:11:56.481Z,998.54
2017-07-26T21:14:20.145Z,998.52
2017-07-26T21:16:44.209Z,998.49
2017-07-26T21:19:08.201Z,998.48
2017-07-26T21:21:32.242Z,998.51
2017-07-26T21:23:56.411Z,998.48
2017-07-26T21:27:56.655Z,998.53
2017-07-26T21:30:20.628Z,998.52
2017-07-26T21:32:31.927Z,998.53
2017-07-26T21:34:55.978Z,998.53
2017-07-26T21:37:19.942Z,998.53
2017-07-26T21:39:43.957Z,998.52
2017-07-26T21:42:07.959Z,998.53
2017-07-26T21:44:31.931Z,998.54
2017-07-26T21:46:57.911Z,998.52
2017-07-26T21:49:28.788Z,998.51
2017-07-26T21:51:52.769Z,998.52
2017-07-26T21:54:16.682Z,998.52
2017-07-26T21:56:40.670Z,998.46
2017-07-26T21:59:04.627Z,998.51
2017-07-26T22:03:04.746Z,998.57
2017-07-26T22:05:28.748Z,998.55
2017-07-26T22:07:52.759Z,998.51
2017-07-26T22:10:16.761Z,998.48
2017-07-26T22:12:40.724Z,998.49
2017-07-26T22:16:40.849Z,998.52
2017-07-26T22:19:04.814Z,998.48
2017-07-26T22:21:28.805Z,998.48
2017-07-26T22:23:52.723Z,998.46
2017-07-26T22:26:16.705Z,998.44
2017-07-26T22:28:40.654Z,998.47
2017-07-26T22:30:51.035Z,998.45
2017-07-26T22:33:15.011Z,998.48
2017-07-26T22:35:38.971Z,998.45
2017-07-26T22:38:02.908Z,998.44
2017-07-26T22:40:18.451Z,998.47
2017-07-26T22:42:42.408Z,998.5
2017-07-26T22:45:06.292Z,998.47
2017-07-26T22:47:30.253Z,998.42
2017-07-26T22:49:55.239Z,998.42
2017-07-26T22:52:19.188Z,998.4
2017-07-26T22:54:43.149Z,998.38
2017-07-26T22:57:07.134Z,998.36
2017-07-26T22:59:31.084Z,998.35
2017-07-26T23:03:32.028Z,998.38
2017-07-26T23:05:55.943Z,998.37
2017-07-26T23:08:19.866Z,998.3
2017-07-26T23:10:43.840Z,998.35
2017-07-26T23:13:07.754Z,998.31
2017-07-26T23:15:31.724Z,998.27
2017-07-26T23:17:55.638Z,998.23
2017-07-26T23:20:19.587Z,998.26
2017-07-26T23:22:45.557Z,998.19
2017-07-26T23:25:25.115Z,998.2
2017-07-26T23:27:49.048Z,998.17
2017-07-26T23:30:13.070Z,998.14
2017-07-26T23:32:37.058Z,998.11
2017-07-26T23:35:00.991Z,998.15
2017-07-26T23:37:24.933Z,998.14
2017-07-26T23:39:57.579Z,998.1
2017-07-26T23:42:21.566Z,998.13
2017-07-26T23:44:45.543Z,998.11
2017-07-26T23:47:09.483Z,998.08
2017-07-26T23:49:33.463Z,998.1
2017-07-26T23:51:57.449Z,998.09
2017-07-26T23:54:38.102Z,998.07
2017-07-26T23:57:02.060Z,998.08
2017-07-26T23:59:26.036Z,998.06
